createdAt,value
2023-11-15T00:00:49.921Z,28.98
2023-11-15T00:03:19.533Z,29.02
2023-11-15T00:05:51.252Z,29.05
2023-11-15T00:08:21.135Z,29.20
2023-11-15T00:10:50.752Z,29.20
2023-11-15T00:13:21.030Z,29.18
2023-11-15T00:15:50.840Z,29.15
2023-11-15T00:18:20.747Z,29.17
2023-11-15T00:20:53.809Z,29.20
2023-11-15T00:23:23.587Z,29.27
2023-11-15T00:25:53.146Z,29.35
2023-11-15T00:28:23.096Z,29.37
2023-11-15T00:30:52.689Z,29.35
2023-11-15T00:33:22.530Z,29.42
2023-11-15T00:35:52.259Z,29.43
2023-11-15T00:38:22.185Z,29.43
2023-11-15T00:40:53.474Z,29.49
2023-11-15T00:43:23.321Z,29.49
2023-11-15T00:45:53.190Z,29.46
2023-11-15T00:48:23.341Z,29.48
2023-11-15T00:50:53.778Z,29.53
2023-11-15T00:53:23.741Z,29.56
2023-11-15T00:55:53.513Z,29.60
2023-11-15T00:58:24.462Z,29.64
2023-11-15T01:00:57.571Z,29.67
2023-11-15T01:03:31.046Z,29.71
2023-11-15T01:06:03.455Z,29.74
2023-11-15T01:08:33.178Z,29.76
2023-11-15T01:11:02.743Z,29.79
2023-11-15T01:13:35.108Z,29.82
2023-11-15T01:16:06.952Z,29.85
2023-11-15T01:18:37.002Z,29.88
2023-11-15T01:21:07.736Z,29.91
2023-11-15T01:23:38.326Z,29.93
2023-11-15T01:26:08.278Z,29.95
2023-11-15T01:28:37.804Z,29.97
2023-11-15T01:31:07.780Z,29.99
2023-11-15T01:33:37.293Z,30.03
2023-11-15T01:36:07.526Z,30.04
2023-11-15T01:38:38.966Z,30.05
2023-11-15T01:41:08.844Z,30.08
2023-11-15T01:43:38.441Z,30.11
2023-11-15T01:46:08.937Z,30.13
2023-11-15T01:48:39.557Z,30.16
2023-11-15T01:51:10.646Z,30.17
2023-11-15T01:53:43.074Z,30.20
2023-11-15T01:56:12.898Z,30.23
2023-11-15T01:58:44.317Z,30.24
2023-11-15T02:01:17.005Z,30.26
2023-11-15T02:03:47.428Z,30.30
2023-11-15T02:06:18.049Z,30.32
2023-11-15T02:08:48.458Z,30.33
2023-11-15T02:11:18.989Z,30.36
2023-11-15T02:13:49.716Z,30.38
2023-11-15T02:16:20.186Z,30.41
2023-11-15T02:18:51.032Z,30.43
2023-11-15T02:21:22.935Z,30.44
2023-11-15T02:23:53.825Z,30.47
2023-11-15T02:26:24.870Z,30.49
2023-11-15T02:28:56.571Z,30.50
2023-11-15T02:31:27.019Z,30.54
2023-11-15T02:33:57.131Z,30.56
2023-11-15T02:36:27.503Z,30.57
2023-11-15T02:38:57.773Z,30.60
2023-11-15T02:41:28.592Z,30.63
2023-11-15T02:43:58.761Z,30.66
2023-11-15T02:46:29.164Z,30.66
2023-11-15T02:48:59.330Z,30.69
2023-11-15T02:51:29.447Z,30.71
2023-11-15T02:53:59.894Z,30.73
2023-11-15T02:56:30.239Z,30.75
2023-11-15T02:59:01.072Z,30.78
2023-11-15T03:01:31.355Z,30.80
2023-11-15T03:04:02.022Z,30.82
2023-11-15T03:06:32.426Z,30.84
2023-11-15T03:09:16.378Z,30.86
2023-11-15T03:11:46.693Z,30.89
2023-11-15T03:14:17.500Z,30.93
2023-11-15T03:16:48.189Z,30.94
2023-11-15T03:19:18.319Z,30.96
2023-11-15T03:21:48.897Z,30.98
2023-11-15T03:24:19.060Z,31.01
2023-11-15T03:26:49.403Z,31.03
2023-11-15T03:29:19.832Z,31.05
2023-11-15T03:31:50.187Z,31.07
2023-11-15T03:34:20.539Z,31.10
2023-11-15T03:36:50.899Z,31.11
2023-11-15T03:39:22.112Z,31.14
2023-11-15T03:41:52.737Z,31.16
2023-11-15T03:44:22.779Z,31.19
2023-11-15T03:46:53.261Z,31.21
2023-11-15T03:49:23.535Z,31.24
2023-11-15T03:51:53.694Z,31.25
2023-11-15T03:54:23.308Z,31.28
2023-11-15T03:56:53.952Z,31.29
2023-11-15T03:59:24.580Z,31.32
2023-11-15T04:01:57.688Z,31.32
2023-11-15T04:04:29.281Z,31.34
2023-11-15T04:07:00.027Z,31.35
2023-11-15T04:09:30.286Z,31.38
2023-11-15T04:17:33.762Z,31.42
2023-11-15T04:20:03.996Z,31.44
2023-11-15T04:22:34.006Z,31.45
2023-11-15T04:25:03.831Z,31.47
2023-11-15T04:27:34.052Z,31.49
2023-11-15T04:30:03.827Z,31.50
2023-11-15T04:32:34.728Z,31.51
2023-11-15T04:35:05.074Z,31.52
2023-11-15T04:37:36.217Z,31.54
2023-11-15T04:40:08.854Z,31.54
2023-11-15T04:42:39.569Z,31.55
2023-11-15T04:45:09.428Z,31.56
2023-11-15T04:47:39.412Z,31.57
2023-11-15T04:50:10.612Z,31.59
2023-11-15T04:52:40.441Z,31.59
2023-11-15T04:55:12.250Z,31.61
2023-11-15T04:57:42.137Z,31.62
2023-11-15T05:00:13.674Z,31.63
2023-11-15T05:02:43.602Z,31.64
2023-11-15T05:05:13.283Z,31.66
2023-11-15T05:07:43.365Z,31.68
2023-11-15T05:10:13.261Z,31.69
2023-11-15T05:12:42.850Z,31.70
2023-11-15T05:15:13.191Z,31.72
2023-11-15T05:17:43.179Z,31.72
2023-11-15T05:20:13.179Z,31.75
2023-11-15T05:22:43.398Z,31.76
2023-11-15T05:25:14.123Z,31.76
2023-11-15T05:27:44.152Z,31.78
2023-11-15T05:30:14.283Z,31.80
2023-11-15T05:32:45.044Z,31.81
2023-11-15T05:35:14.939Z,31.82
2023-11-15T05:37:44.519Z,31.85
2023-11-15T05:40:20.547Z,31.87
2023-11-15T05:42:50.598Z,31.87
2023-11-15T05:45:20.886Z,31.89
2023-11-15T05:47:51.015Z,31.90
2023-11-15T05:50:21.411Z,31.92
2023-11-15T05:52:51.132Z,31.93
2023-11-15T05:55:20.790Z,31.94
2023-11-15T05:57:50.724Z,31.96
2023-11-15T06:00:23.595Z,31.97
2023-11-15T06:02:53.621Z,31.98
2023-11-15T06:05:23.497Z,31.99
2023-11-15T06:07:53.096Z,32.00
2023-11-15T06:10:22.889Z,32.04
2023-11-15T06:12:53.699Z,32.04
2023-11-15T06:15:24.874Z,32.05
2023-11-15T06:17:54.794Z,32.08
2023-11-15T06:20:24.450Z,32.09
2023-11-15T06:22:54.489Z,32.10
2023-11-15T06:25:24.501Z,32.11
2023-11-15T06:27:54.921Z,32.12
2023-11-15T06:30:24.878Z,32.15
2023-11-15T06:32:54.447Z,32.16
2023-11-15T06:35:24.270Z,32.18
2023-11-15T06:37:53.830Z,32.20
2023-11-15T06:40:23.749Z,32.22
2023-11-15T06:42:53.252Z,32.22
2023-11-15T06:45:23.289Z,32.23
2023-11-15T06:47:52.835Z,32.24
2023-11-15T06:50:22.705Z,32.26
2023-11-15T06:52:52.437Z,32.27
2023-11-15T06:55:22.242Z,32.29
2023-11-15T06:57:51.705Z,32.30
2023-11-15T07:00:22.194Z,32.31
2023-11-15T07:02:51.931Z,32.32
2023-11-15T07:05:21.862Z,32.33
2023-11-15T07:07:51.714Z,32.35
2023-11-15T07:10:21.800Z,32.35
2023-11-15T07:12:54.300Z,32.37
2023-11-15T07:15:26.389Z,32.38
2023-11-15T07:17:56.894Z,32.39
2023-11-15T07:20:28.429Z,32.41
2023-11-15T07:22:58.353Z,32.42
2023-11-15T07:25:29.490Z,32.43
2023-11-15T07:28:01.038Z,32.45
2023-11-15T07:30:30.844Z,32.46
2023-11-15T07:33:00.378Z,32.47
2023-11-15T07:35:30.967Z,32.50
2023-11-15T07:38:00.768Z,32.51
2023-11-15T07:40:30.321Z,32.53
2023-11-15T07:43:02.588Z,32.54
2023-11-15T07:45:36.079Z,32.55
2023-11-15T07:48:07.933Z,32.56
2023-11-15T07:50:37.832Z,32.57
2023-11-15T07:53:07.370Z,32.58
2023-11-15T07:55:38.054Z,32.59
2023-11-15T07:58:08.628Z,32.60
2023-11-15T08:00:39.309Z,32.62
2023-11-15T08:03:10.345Z,32.62
2023-11-15T08:05:40.185Z,32.63
2023-11-15T08:08:11.297Z,32.65
2023-11-15T08:10:44.498Z,32.65
2023-11-15T08:13:14.513Z,32.66
2023-11-15T08:15:44.684Z,32.67
2023-11-15T08:18:15.577Z,32.68
2023-11-15T08:20:46.203Z,32.69
2023-11-15T08:23:16.188Z,32.69
2023-11-15T08:25:52.480Z,32.71
2023-11-15T08:28:25.148Z,32.71
2023-11-15T08:30:55.147Z,32.71
2023-11-15T08:33:24.799Z,32.71
2023-11-15T08:35:55.756Z,32.72
2023-11-15T08:38:27.053Z,32.43
2023-11-15T08:40:57.833Z,32.73
2023-11-15T08:43:27.464Z,32.75
2023-11-15T08:45:59.578Z,32.75
2023-11-15T08:48:29.577Z,32.75
2023-11-15T08:50:59.372Z,32.75
2023-11-15T08:53:30.148Z,32.75
2023-11-15T08:56:00.819Z,32.75
2023-11-15T08:58:30.289Z,32.77
2023-11-15T09:01:03.578Z,32.76
2023-11-15T09:03:34.359Z,32.76
2023-11-15T09:06:04.219Z,32.76
2023-11-15T09:08:34.228Z,32.77
2023-11-15T09:11:04.803Z,32.77
2023-11-15T09:13:35.460Z,32.76
2023-11-15T09:16:06.751Z,32.77
2023-11-15T09:18:37.645Z,32.75
2023-11-15T09:21:07.621Z,32.75
2023-11-15T09:23:38.833Z,32.41
2023-11-15T09:26:11.669Z,32.24
2023-11-15T09:28:42.509Z,32.18
2023-11-15T09:31:14.505Z,32.11
2023-11-15T09:33:44.522Z,31.93
2023-11-15T09:36:14.859Z,32.05
2023-11-15T09:38:45.405Z,32.00
2023-11-15T09:41:15.496Z,31.85
2023-11-15T09:43:53.810Z,32.22
2023-11-15T09:46:28.996Z,32.34
2023-11-15T09:49:05.219Z,32.40
2023-11-15T09:51:39.742Z,32.22
2023-11-15T09:54:16.416Z,32.10
2023-11-15T09:56:51.210Z,32.05
2023-11-15T09:59:21.198Z,32.04
2023-11-15T10:01:51.357Z,32.01
2023-11-15T10:04:24.834Z,31.99
2023-11-15T10:07:03.243Z,31.97
2023-11-15T10:09:45.481Z,31.96
2023-11-15T10:12:15.196Z,31.95
2023-11-15T10:14:55.320Z,31.94
2023-11-15T10:17:40.046Z,31.94
2023-11-15T10:20:24.403Z,31.95
2023-11-15T10:22:55.481Z,31.93
2023-11-15T10:25:28.707Z,31.91
2023-11-15T10:28:12.192Z,31.89
2023-11-15T10:30:42.779Z,31.90
2023-11-15T10:33:13.380Z,31.88
2023-11-15T10:35:45.736Z,31.90
2023-11-15T10:38:22.078Z,31.85
2023-11-15T10:40:52.823Z,31.79
2023-11-15T10:43:22.795Z,31.76
2023-11-15T10:45:55.667Z,31.67
2023-11-15T10:48:28.012Z,31.65
2023-11-15T10:51:00.412Z,31.89
2023-11-15T10:53:30.657Z,32.00
2023-11-15T10:56:01.651Z,32.07
2023-11-15T10:58:33.231Z,32.12
2023-11-15T11:01:03.990Z,32.17
2023-11-15T11:03:33.930Z,32.20
2023-11-15T11:06:11.270Z,32.23
2023-11-15T11:08:44.247Z,32.26
2023-11-15T11:11:16.840Z,32.27
2023-11-15T11:13:47.411Z,32.29
2023-11-15T11:16:36.972Z,32.30
2023-11-15T11:19:24.060Z,32.31
2023-11-15T11:22:07.360Z,32.31
2023-11-15T11:24:51.045Z,32.31
2023-11-15T11:27:21.907Z,32.31
2023-11-15T11:29:51.728Z,32.31
2023-11-15T11:32:29.458Z,32.32
2023-11-15T11:35:08.889Z,32.30
2023-11-15T11:37:47.318Z,32.31
2023-11-15T11:40:17.359Z,32.31
2023-11-15T11:42:50.315Z,32.31
2023-11-15T11:45:20.386Z,32.30
2023-11-15T11:47:51.165Z,32.29
2023-11-15T11:50:25.804Z,32.28
2023-11-15T11:52:59.672Z,32.29
2023-11-15T11:55:33.577Z,32.28
2023-11-15T11:58:04.238Z,32.27
2023-11-15T12:00:34.047Z,32.27
2023-11-15T12:03:06.277Z,32.26
2023-11-15T12:05:40.955Z,32.25
2023-11-15T12:08:12.042Z,32.25
2023-11-15T12:10:43.890Z,32.24
2023-11-15T12:13:14.412Z,32.23
2023-11-15T12:15:45.775Z,32.22
2023-11-15T12:18:16.332Z,32.21
2023-11-15T12:20:46.881Z,32.21
2023-11-15T12:23:19.324Z,32.20
2023-11-15T12:25:54.650Z,32.19
2023-11-15T12:28:26.395Z,32.19
2023-11-15T12:30:57.336Z,32.19
2023-11-15T12:33:30.997Z,32.10
2023-11-15T12:36:01.331Z,31.88
2023-11-15T12:38:31.851Z,31.80
2023-11-15T12:41:07.484Z,31.75
2023-11-15T12:43:38.060Z,31.68
2023-11-15T12:46:20.499Z,31.68
2023-11-15T12:48:52.892Z,31.66
2023-11-15T12:51:22.650Z,31.66
2023-11-15T12:53:56.072Z,31.64
2023-11-15T12:56:26.000Z,31.60
2023-11-15T12:58:56.625Z,31.61
2023-11-15T13:01:30.142Z,31.61
2023-11-15T13:04:01.277Z,31.60
2023-11-15T13:06:37.718Z,31.58
2023-11-15T13:09:10.214Z,31.57
2023-11-15T13:11:41.381Z,31.57
2023-11-15T13:14:11.252Z,31.56
2023-11-15T13:16:40.882Z,31.57
2023-11-15T13:19:10.906Z,31.56
2023-11-15T13:21:43.905Z,31.56
2023-11-15T13:24:13.969Z,31.55
2023-11-15T13:26:45.463Z,31.53
2023-11-15T13:29:15.513Z,31.53
2023-11-15T13:31:45.416Z,31.53
2023-11-15T13:36:50.740Z,31.52
2023-11-15T13:39:21.170Z,31.50
2023-11-15T13:41:51.477Z,31.49
2023-11-15T13:44:21.053Z,31.47
2023-11-15T13:46:50.941Z,31.49
2023-11-15T13:49:20.696Z,31.48
2023-11-15T13:51:50.543Z,31.49
2023-11-15T13:54:23.431Z,31.46
2023-11-15T13:56:53.726Z,31.46
2023-11-15T13:59:23.315Z,31.46
2023-11-15T14:01:53.461Z,31.46
2023-11-15T14:04:23.288Z,31.46
2023-11-15T14:06:55.015Z,31.44
2023-11-15T14:09:25.855Z,31.46
2023-11-15T14:11:58.087Z,31.45
2023-11-15T14:14:28.911Z,31.47
2023-11-15T14:16:58.859Z,31.47
2023-11-15T14:19:28.665Z,31.49
2023-11-15T14:22:02.089Z,31.49
2023-11-15T14:24:31.983Z,31.49
2023-11-15T14:27:03.049Z,31.47
2023-11-15T14:29:32.971Z,31.46
2023-11-15T14:32:03.314Z,31.43
2023-11-15T14:34:33.800Z,31.27
2023-11-15T14:37:03.438Z,31.08
2023-11-15T14:39:34.478Z,31.00
2023-11-15T14:42:08.208Z,30.87
2023-11-15T14:44:38.329Z,30.79
2023-11-15T14:47:10.151Z,30.68
2023-11-15T14:49:40.582Z,30.59
2023-11-15T14:52:13.126Z,30.51
2023-11-15T14:54:43.965Z,30.45
2023-11-15T14:57:14.436Z,30.34
2023-11-15T14:59:49.421Z,30.21
2023-11-15T15:02:20.946Z,30.19
2023-11-15T15:04:50.980Z,30.07
2023-11-15T15:07:20.945Z,30.06
2023-11-15T15:09:50.851Z,30.22
2023-11-15T15:12:22.549Z,30.25
2023-11-15T15:14:52.425Z,30.24
2023-11-15T15:17:25.626Z,30.20
2023-11-15T15:19:56.646Z,30.18
2023-11-15T15:22:28.253Z,30.16
2023-11-15T15:24:58.665Z,30.11
2023-11-15T15:27:29.306Z,30.05
2023-11-15T15:30:02.201Z,30.01
2023-11-15T15:32:33.502Z,29.95
2023-11-15T15:35:03.723Z,29.90
2023-11-15T15:37:34.329Z,29.87
2023-11-15T15:40:06.004Z,29.81
2023-11-15T15:42:35.785Z,29.78
2023-11-15T15:45:05.370Z,29.73
2023-11-15T15:47:35.512Z,29.70
2023-11-15T15:50:08.047Z,29.64
2023-11-15T15:52:38.035Z,29.58
2023-11-15T15:55:15.497Z,29.55
2023-11-15T15:57:45.768Z,29.50
2023-11-15T16:00:18.746Z,29.47
2023-11-15T16:02:48.866Z,29.41
2023-11-15T16:05:20.252Z,29.38
2023-11-15T16:07:50.236Z,29.35
2023-11-15T16:10:21.541Z,29.31
2023-11-15T16:12:52.184Z,29.29
2023-11-15T16:15:21.976Z,29.25
2023-11-15T16:17:51.686Z,29.19
2023-11-15T16:20:22.426Z,29.17
2023-11-15T16:22:54.051Z,29.13
2023-11-15T16:25:24.322Z,29.08
2023-11-15T16:27:54.671Z,29.07
2023-11-15T16:30:25.957Z,29.06
2023-11-15T16:32:55.915Z,29.04
2023-11-15T16:35:25.984Z,29.00
2023-11-15T16:37:55.561Z,28.98
2023-11-15T16:40:25.724Z,28.93
2023-11-15T16:42:55.341Z,28.90
2023-11-15T16:45:28.634Z,28.87
2023-11-15T16:47:58.665Z,28.85
2023-11-15T16:50:28.286Z,28.85
2023-11-15T16:52:58.054Z,28.82
2023-11-15T16:55:27.653Z,28.77
2023-11-15T16:57:57.408Z,28.78
2023-11-15T17:00:27.279Z,28.74
2023-11-15T17:02:57.047Z,28.73
2023-11-15T17:05:26.862Z,28.71
2023-11-15T17:07:56.523Z,28.69
2023-11-15T17:10:26.466Z,28.67
2023-11-15T17:12:56.099Z,28.65
2023-11-15T17:15:26.078Z,28.65
2023-11-15T17:17:56.435Z,28.60
2023-11-15T17:20:26.227Z,28.60
2023-11-15T17:22:56.313Z,28.56
2023-11-15T17:25:26.254Z,28.56
2023-11-15T17:27:57.699Z,28.51
2023-11-15T17:30:28.505Z,28.51
2023-11-15T17:33:01.866Z,28.47
2023-11-15T17:35:31.796Z,28.46
2023-11-15T17:38:01.415Z,28.44
2023-11-15T17:40:33.605Z,28.44
2023-11-15T17:43:03.412Z,28.42
2023-11-15T17:45:33.205Z,28.39
2023-11-15T17:48:03.196Z,28.40
2023-11-15T17:50:32.941Z,28.37
2023-11-15T17:53:02.562Z,28.36
2023-11-15T17:55:32.393Z,28.34
2023-11-15T17:58:02.246Z,28.34
2023-11-15T18:00:34.149Z,28.32
2023-11-15T18:03:04.089Z,28.29
2023-11-15T18:05:33.832Z,28.29
2023-11-15T18:08:03.776Z,28.26
2023-11-15T18:10:33.862Z,28.24
2023-11-15T18:13:04.049Z,28.22
2023-11-15T18:15:33.753Z,28.25
2023-11-15T18:18:04.227Z,28.24
2023-11-15T18:20:36.231Z,28.21
2023-11-15T18:23:06.667Z,28.19
2023-11-15T18:25:36.562Z,28.17
2023-11-15T18:28:06.485Z,28.16
2023-11-15T18:30:37.139Z,28.16
2023-11-15T18:33:10.884Z,28.16
2023-11-15T18:35:41.875Z,28.13
2023-11-15T18:38:11.680Z,28.11
2023-11-15T18:40:44.413Z,28.07
2023-11-15T18:43:15.644Z,28.05
2023-11-15T18:45:45.687Z,28.07
2023-11-15T18:48:15.678Z,28.03
2023-11-15T18:50:45.633Z,28.00
2023-11-15T18:53:15.744Z,28.02
2023-11-15T18:55:45.359Z,28.00
2023-11-15T18:58:15.234Z,27.99
2023-11-15T19:00:44.902Z,27.98
2023-11-15T19:03:15.188Z,27.95
2023-11-15T19:05:45.285Z,27.95
2023-11-15T19:08:16.528Z,27.94
2023-11-15T19:10:47.360Z,27.93
2023-11-15T19:13:18.822Z,27.93
2023-11-15T19:15:52.177Z,27.93
2023-11-15T19:18:22.141Z,27.92
2023-11-15T19:20:51.867Z,27.91
2023-11-15T19:23:23.256Z,27.91
2023-11-15T19:25:53.223Z,27.88
2023-11-15T19:28:22.773Z,27.87
2023-11-15T19:30:52.744Z,27.87
2023-11-15T19:33:23.123Z,27.88
2023-11-15T19:35:53.078Z,27.84
2023-11-15T19:38:22.821Z,27.85
2023-11-15T19:40:52.883Z,27.82
2023-11-15T19:43:24.343Z,27.80
2023-11-15T19:46:01.127Z,27.79
2023-11-15T19:48:31.010Z,27.76
2023-11-15T19:51:01.608Z,27.74
2023-11-15T19:53:31.126Z,27.72
2023-11-15T19:56:00.917Z,27.73
2023-11-15T19:58:30.771Z,27.71
2023-11-15T20:01:04.588Z,27.70
2023-11-15T20:03:34.987Z,27.70
2023-11-15T20:06:05.053Z,27.68
2023-11-15T20:08:35.715Z,27.66
2023-11-15T20:11:05.688Z,27.66
2023-11-15T20:13:35.452Z,27.65
2023-11-15T20:16:05.211Z,27.66
2023-11-15T20:18:35.143Z,27.63
2023-11-15T20:21:07.736Z,27.63
2023-11-15T20:23:39.124Z,27.62
2023-11-15T20:26:10.251Z,27.60
2023-11-15T20:28:44.543Z,27.61
2023-11-15T20:31:15.918Z,27.58
2023-11-15T20:33:45.747Z,27.56
2023-11-15T20:36:15.771Z,27.53
2023-11-15T20:38:46.085Z,27.53
2023-11-15T20:41:16.131Z,27.53
2023-11-15T20:43:45.657Z,27.52
2023-11-15T20:46:18.756Z,27.51
2023-11-15T20:48:50.304Z,27.52
2023-11-15T20:51:20.189Z,27.51
2023-11-15T20:53:50.236Z,27.48
2023-11-15T20:56:19.835Z,27.46
2023-11-15T20:58:51.102Z,27.47
2023-11-15T21:01:21.194Z,27.44
2023-11-15T21:03:53.335Z,27.43
2023-11-15T21:06:41.392Z,27.45
2023-11-15T21:09:12.482Z,27.42
2023-11-15T21:11:42.917Z,27.41
2023-11-15T21:14:13.073Z,27.40
2023-11-15T21:16:42.868Z,27.38
2023-11-15T21:19:12.707Z,27.40
2023-11-15T21:21:42.861Z,27.37
2023-11-15T21:24:12.971Z,27.36
2023-11-15T21:26:43.023Z,27.35
2023-11-15T21:29:12.959Z,27.35
2023-11-15T21:31:42.918Z,27.33
2023-11-15T21:34:13.196Z,27.32
2023-11-15T21:36:43.088Z,27.30
2023-11-15T21:39:12.714Z,27.30
2023-11-15T21:41:43.194Z,27.29
2023-11-15T21:44:13.019Z,27.28
2023-11-15T21:46:42.661Z,27.29
2023-11-15T21:49:13.611Z,27.25
2023-11-15T21:51:43.617Z,27.25
2023-11-15T21:54:13.167Z,27.23
2023-11-15T21:56:44.172Z,27.24
2023-11-15T21:59:13.963Z,27.22
2023-11-15T22:01:43.632Z,27.19
2023-11-15T22:04:13.485Z,27.18
2023-11-15T22:06:52.408Z,27.18
2023-11-15T22:09:29.134Z,27.25
2023-11-15T22:11:58.823Z,27.28
2023-11-15T22:14:28.560Z,27.29
2023-11-15T22:17:00.739Z,27.28
2023-11-15T22:19:31.330Z,27.27
2023-11-15T22:22:01.137Z,27.28
2023-11-15T22:24:31.387Z,27.29
2023-11-15T22:27:01.307Z,27.29
2023-11-15T22:29:31.850Z,27.29
2023-11-15T22:32:02.549Z,27.30
2023-11-15T22:34:32.028Z,27.29
2023-11-15T22:37:02.548Z,27.31
2023-11-15T22:39:32.178Z,27.28
2023-11-15T22:42:02.109Z,27.26
2023-11-15T22:44:32.129Z,27.27
2023-11-15T22:47:01.958Z,27.27
2023-11-15T22:49:31.625Z,27.25
2023-11-15T22:52:01.448Z,27.26
2023-11-15T22:54:31.711Z,27.23
2023-11-15T22:57:01.465Z,27.20
2023-11-15T22:59:31.205Z,27.20
2023-11-15T23:02:01.366Z,27.11
2023-11-15T23:04:31.277Z,27.16
2023-11-15T23:07:01.001Z,27.25
2023-11-15T23:09:31.034Z,27.34
2023-11-15T23:12:00.614Z,27.42
2023-11-15T23:14:30.408Z,27.14
2023-11-15T23:17:00.115Z,27.59
2023-11-15T23:19:29.912Z,27.66
2023-11-15T23:22:04.273Z,27.72
2023-11-15T23:24:34.947Z,27.79
2023-11-15T23:27:05.612Z,27.83
2023-11-15T23:29:35.440Z,27.90
2023-11-15T23:32:06.692Z,27.96
2023-11-15T23:34:36.528Z,28.01
2023-11-15T23:37:06.280Z,28.04
2023-11-15T23:39:36.235Z,28.10
2023-11-15T23:42:06.590Z,28.15
2023-11-15T23:44:37.708Z,28.18
2023-11-15T23:47:08.005Z,28.24
2023-11-15T23:49:38.896Z,28.28
2023-11-15T23:52:08.694Z,28.32
2023-11-15T23:54:39.639Z,28.43
2023-11-15T23:57:10.509Z,28.50
2023-11-15T23:59:40.629Z,28.59
